createdAt,value
2022-10-01T00:00:55.273Z,91.02
2022-10-01T00:01:55.289Z,91.12
2022-10-01T00:02:55.279Z,91.12
2022-10-01T00:03:55.223Z,91.12
2022-10-01T00:04:55.232Z,91.22
2022-10-01T00:05:55.213Z,91.22
2022-10-01T00:06:55.201Z,91.22
2022-10-01T00:07:55.188Z,91.22
2022-10-01T00:08:55.178Z,91.22
2022-10-01T00:09:55.164Z,91.22
2022-10-01T00:10:55.167Z,91.22
2022-10-01T00:11:55.138Z,91.33
2022-10-01T00:12:55.127Z,91.33
2022-10-01T00:13:55.134Z,91.33
2022-10-01T00:14:55.111Z,91.42
2022-10-01T00:15:55.113Z,91.53
2022-10-01T00:16:55.145Z,91.53
2022-10-01T00:17:55.082Z,91.67
2022-10-01T00:18:55.066Z,91.78
2022-10-01T00:19:55.056Z,91.78
2022-10-01T00:20:55.057Z,91.88
2022-10-01T00:21:55.039Z,91.88
2022-10-01T00:22:55.021Z,91.88
2022-10-01T00:23:55.015Z,91.84
2022-10-01T00:24:54.994Z,91.88
2022-10-01T00:25:55.006Z,91.88
2022-10-01T00:26:54.988Z,91.88
2022-10-01T00:27:55.038Z,91.99
2022-10-01T00:28:54.958Z,91.88
2022-10-01T00:29:54.954Z,91.88
2022-10-01T00:30:54.935Z,91.99
2022-10-01T00:31:54.996Z,91.99
2022-10-01T00:32:54.907Z,91.99
2022-10-01T00:33:54.918Z,91.99
2022-10-01T00:34:54.893Z,91.99
2022-10-01T00:35:54.881Z,92.08
2022-10-01T00:36:54.875Z,92.08
2022-10-01T00:37:54.875Z,92.08
2022-10-01T00:38:54.851Z,92.08
2022-10-01T00:39:54.841Z,92.08
2022-10-01T00:40:54.826Z,92.08
2022-10-01T00:41:54.829Z,92.19
2022-10-01T00:42:54.813Z,92.19
2022-10-01T00:43:54.807Z,92.19
2022-10-01T00:44:54.778Z,92.19
2022-10-01T00:45:54.861Z,92.19
2022-10-01T00:46:54.765Z,92.19
2022-10-01T00:47:54.770Z,92.19
2022-10-01T00:48:54.755Z,92.19
2022-10-01T00:49:59.222Z,92.19
2022-10-01T00:50:54.719Z,92.19
2022-10-01T00:51:54.714Z,92.19
2022-10-01T00:52:54.701Z,92.19
2022-10-01T00:53:54.701Z,92.29
2022-10-01T00:54:54.680Z,92.19
2022-10-01T00:55:54.668Z,92.19
2022-10-01T00:56:54.658Z,92.19
2022-10-01T00:57:54.653Z,92.19
2022-10-01T00:58:54.629Z,92.19
2022-10-01T00:59:54.632Z,92.19
2022-10-01T01:00:54.698Z,92.29
2022-10-01T01:01:54.790Z,92.40
2022-10-01T01:02:54.584Z,92.40
2022-10-01T01:03:54.579Z,92.40
2022-10-01T01:04:54.571Z,92.50
2022-10-01T01:05:54.561Z,92.54
2022-10-01T01:06:54.544Z,92.64
2022-10-01T01:07:54.542Z,92.64
2022-10-01T01:08:54.524Z,92.74
2022-10-01T01:09:54.523Z,92.74
2022-10-01T01:10:54.501Z,92.74
2022-10-01T01:11:54.494Z,92.74
2022-10-01T01:12:54.482Z,92.85
2022-10-01T01:13:54.476Z,92.85
2022-10-01T01:14:54.476Z,92.74
2022-10-01T01:15:54.503Z,92.74
2022-10-01T01:16:54.434Z,92.85
2022-10-01T01:17:54.423Z,92.85
2022-10-01T01:18:54.417Z,92.85
2022-10-01T01:19:54.411Z,92.85
2022-10-01T01:20:54.394Z,92.85
2022-10-01T01:21:54.384Z,92.95
2022-10-01T01:22:54.362Z,92.95
2022-10-01T01:23:54.358Z,92.95
2022-10-01T01:24:54.366Z,92.95
2022-10-01T01:25:54.348Z,93.05
2022-10-01T01:26:54.336Z,93.05
2022-10-01T01:27:54.381Z,93.05
2022-10-01T01:28:54.303Z,93.05
2022-10-01T01:29:54.295Z,93.05
2022-10-01T01:30:54.341Z,93.05
2022-10-01T01:31:54.269Z,93.05
2022-10-01T01:32:54.254Z,93.05
2022-10-01T01:33:54.250Z,93.16
2022-10-01T01:34:54.235Z,93.16
2022-10-01T01:35:54.251Z,93.16
2022-10-01T01:36:54.223Z,93.16
2022-10-01T01:37:54.204Z,93.16
2022-10-01T01:38:54.197Z,93.16
2022-10-01T01:39:54.194Z,93.16
2022-10-01T01:40:54.988Z,93.16
2022-10-01T01:41:54.189Z,93.16
2022-10-01T01:42:54.152Z,93.16
2022-10-01T01:43:54.137Z,93.26
2022-10-01T01:44:54.127Z,93.36
2022-10-01T01:45:54.179Z,93.46
2022-10-01T01:46:54.117Z,93.46
2022-10-01T01:47:54.091Z,93.46
2022-10-01T01:48:54.081Z,93.57
2022-10-01T01:49:54.075Z,93.57
2022-10-01T01:50:54.063Z,93.67
2022-10-01T01:51:54.067Z,93.67
2022-10-01T01:52:54.101Z,93.77
2022-10-01T01:53:54.054Z,93.87
2022-10-01T01:54:54.017Z,93.87
2022-10-01T01:55:54.014Z,93.98
2022-10-01T01:56:54.002Z,93.98
2022-10-01T01:57:53.991Z,94.08
2022-10-01T01:58:53.998Z,94.12
2022-10-01T01:59:53.964Z,94.18
2022-10-01T02:00:53.952Z,94.33
2022-10-01T02:01:54.063Z,94.33
2022-10-01T02:02:53.989Z,94.33
2022-10-01T02:03:53.927Z,94.43
2022-10-01T02:04:53.914Z,94.54
2022-10-01T02:05:53.892Z,94.54
2022-10-01T02:06:53.886Z,94.54
2022-10-01T02:07:53.885Z,94.54
2022-10-01T02:08:53.863Z,94.54
2022-10-01T02:09:53.855Z,94.64
2022-10-01T02:10:53.839Z,94.64
2022-10-01T02:11:53.827Z,94.64
2022-10-01T02:12:53.832Z,94.64
2022-10-01T02:13:53.818Z,94.64
2022-10-01T02:14:53.817Z,94.64
2022-10-01T02:15:53.863Z,94.64
2022-10-01T02:16:53.783Z,94.74
2022-10-01T02:17:53.789Z,94.74
2022-10-01T02:18:53.765Z,94.74
2022-10-01T02:19:53.754Z,94.84
2022-10-01T02:20:53.730Z,94.84
2022-10-01T02:21:53.729Z,94.84
2022-10-01T02:22:53.710Z,94.95
2022-10-01T02:23:53.732Z,94.95
2022-10-01T02:24:53.690Z,94.95
2022-10-01T02:25:53.681Z,94.95
2022-10-01T02:26:53.666Z,94.95
2022-10-01T02:27:53.702Z,94.95
2022-10-01T02:28:53.655Z,94.95
2022-10-01T02:29:53.657Z,95.05
2022-10-01T02:30:53.661Z,95.05
2022-10-01T02:31:53.617Z,95.05
2022-10-01T02:32:53.601Z,95.05
2022-10-01T02:33:53.592Z,95.05
2022-10-01T02:34:53.595Z,95.05
2022-10-01T02:35:53.581Z,95.15
2022-10-01T02:36:53.564Z,95.15
2022-10-01T02:37:53.548Z,95.15
2022-10-01T02:38:53.538Z,95.15
2022-10-01T02:39:53.543Z,95.15
2022-10-01T02:40:53.512Z,95.15
2022-10-01T02:41:53.507Z,95.15
2022-10-01T02:42:53.496Z,95.15
2022-10-01T02:43:53.489Z,95.15
2022-10-01T02:44:53.481Z,95.15
2022-10-01T02:45:53.555Z,95.25
2022-10-01T02:46:53.452Z,95.25
2022-10-01T02:47:53.443Z,95.25
2022-10-01T02:48:53.425Z,95.25
2022-10-01T02:49:53.427Z,95.25
2022-10-01T02:50:53.422Z,95.25
2022-10-01T02:51:53.408Z,95.25
2022-10-01T02:52:53.394Z,95.25
2022-10-01T02:53:53.381Z,95.25
2022-10-01T02:54:53.371Z,95.25
2022-10-01T02:55:53.371Z,95.25
2022-10-01T02:56:56.225Z,95.30
2022-10-01T02:57:53.324Z,95.30
2022-10-01T02:58:53.335Z,95.40
2022-10-01T02:59:53.334Z,95.30
2022-10-01T03:00:53.306Z,95.30
2022-10-01T03:01:53.467Z,95.30
2022-10-01T03:02:53.312Z,95.30
2022-10-01T03:03:53.274Z,95.30
2022-10-01T03:04:53.258Z,95.40
2022-10-01T03:05:53.253Z,95.40
2022-10-01T03:06:53.227Z,95.40
2022-10-01T03:07:53.219Z,95.40
2022-10-01T03:08:53.206Z,95.30
2022-10-01T03:09:53.199Z,95.30
2022-10-01T03:10:53.208Z,95.20
2022-10-01T03:11:53.179Z,95.20
2022-10-01T03:12:53.161Z,95.20
2022-10-01T03:13:53.154Z,95.09
2022-10-01T03:14:53.146Z,95.09
2022-10-01T03:15:53.270Z,95.09
2022-10-01T03:16:53.123Z,94.99
2022-10-01T03:17:53.115Z,95.09
2022-10-01T03:18:53.098Z,95.09
2022-10-01T03:19:53.088Z,95.09
2022-10-01T03:20:53.114Z,94.99
2022-10-01T03:21:53.073Z,94.99
2022-10-01T03:22:53.060Z,94.99
2022-10-01T03:23:53.050Z,94.89
2022-10-01T03:24:53.036Z,94.89
2022-10-01T03:25:53.046Z,94.89
2022-10-01T03:26:53.018Z,94.89
2022-10-01T03:27:53.069Z,94.78
2022-10-01T03:28:52.990Z,94.78
2022-10-01T03:29:52.989Z,94.68
2022-10-01T03:30:52.982Z,94.68
2022-10-01T03:31:53.051Z,94.58
2022-10-01T03:32:52.951Z,94.58
2022-10-01T03:33:52.949Z,94.58
2022-10-01T03:34:52.924Z,94.58
2022-10-01T03:35:52.944Z,94.58
2022-10-01T03:36:52.934Z,94.58
2022-10-01T03:37:52.899Z,94.58
2022-10-01T03:38:52.888Z,94.58
2022-10-01T03:39:52.877Z,94.58
2022-10-01T03:40:52.860Z,94.58
2022-10-01T03:41:52.870Z,94.58
2022-10-01T03:42:52.844Z,94.58
2022-10-01T03:43:56.021Z,94.48
2022-10-01T03:44:52.835Z,94.48
2022-10-01T03:45:52.888Z,94.48
2022-10-01T03:46:52.810Z,94.37
2022-10-01T03:47:52.799Z,94.27
2022-10-01T03:48:52.776Z,94.27
2022-10-01T03:49:52.779Z,94.17
2022-10-01T03:50:52.760Z,94.17
2022-10-01T03:51:52.762Z,94.07
2022-10-01T03:52:52.743Z,94.07
2022-10-01T03:53:52.725Z,93.96
2022-10-01T03:54:52.724Z,93.96
2022-10-01T03:55:52.716Z,93.96
2022-10-01T03:56:52.709Z,93.96
2022-10-01T03:57:52.683Z,93.92
2022-10-01T03:58:52.675Z,93.82
2022-10-01T03:59:52.668Z,93.82
2022-10-01T04:00:52.657Z,93.71
2022-10-01T04:01:52.772Z,93.71
2022-10-01T04:02:52.673Z,93.61
2022-10-01T04:03:52.621Z,93.61
2022-10-01T04:04:52.611Z,93.51
2022-10-01T04:05:52.600Z,93.65
2022-10-01T04:06:52.600Z,93.65
2022-10-01T04:07:52.573Z,93.65
2022-10-01T04:08:52.569Z,93.65
2022-10-01T04:09:52.568Z,93.65
2022-10-01T04:10:52.544Z,93.65
2022-10-01T04:11:52.543Z,93.61
2022-10-01T04:12:52.516Z,93.55
2022-10-01T04:13:52.506Z,93.44
2022-10-01T04:14:52.504Z,93.44
2022-10-01T04:15:52.558Z,93.44
2022-10-01T04:16:52.721Z,93.35
2022-10-01T04:17:52.460Z,93.35
2022-10-01T04:18:52.469Z,93.44
2022-10-01T04:19:52.445Z,93.44
2022-10-01T04:20:52.442Z,93.44
2022-10-01T04:21:52.438Z,93.35
2022-10-01T04:22:52.422Z,93.35
2022-10-01T04:23:52.424Z,93.44
2022-10-01T04:24:52.385Z,93.44
2022-10-01T04:25:52.374Z,93.55
2022-10-01T04:26:52.377Z,93.44
2022-10-01T04:27:52.386Z,93.44
2022-10-01T04:28:52.351Z,93.44
2022-10-01T04:29:52.346Z,93.44
2022-10-01T04:30:52.331Z,93.44
2022-10-01T04:31:52.427Z,93.44
2022-10-01T04:32:52.351Z,93.44
2022-10-01T04:33:52.285Z,93.44
2022-10-01T04:34:52.294Z,93.44
2022-10-01T04:35:52.281Z,93.55
2022-10-01T04:36:52.290Z,93.55
2022-10-01T04:37:52.247Z,93.55
2022-10-01T04:38:52.240Z,93.55
2022-10-01T04:39:52.233Z,93.55
2022-10-01T04:40:52.224Z,93.55
2022-10-01T04:41:52.255Z,93.65
2022-10-01T04:42:52.204Z,93.65
2022-10-01T04:43:52.185Z,93.76
2022-10-01T04:44:52.171Z,93.65
2022-10-01T04:45:52.167Z,93.65
2022-10-01T04:46:52.194Z,93.65
2022-10-01T04:47:52.150Z,93.65
2022-10-01T04:48:52.136Z,93.65
2022-10-01T04:49:52.120Z,93.76
2022-10-01T04:50:52.107Z,93.76
2022-10-01T04:51:52.093Z,93.76
2022-10-01T04:52:52.104Z,93.76
2022-10-01T04:53:52.073Z,93.76
2022-10-01T04:54:52.064Z,93.76
2022-10-01T04:55:52.057Z,93.76
2022-10-01T04:56:52.056Z,93.65
2022-10-01T04:57:52.043Z,93.65
2022-10-01T04:58:52.024Z,93.65
2022-10-01T04:59:52.004Z,93.65
2022-10-01T05:00:52.024Z,93.55
2022-10-01T05:01:52.054Z,93.65
2022-10-01T05:02:51.985Z,93.65
2022-10-01T05:03:51.963Z,93.65
2022-10-01T05:04:51.961Z,93.65
2022-10-01T05:05:51.950Z,93.65
2022-10-01T05:06:51.937Z,93.65
2022-10-01T05:07:51.935Z,93.55
2022-10-01T05:08:51.910Z,93.55
2022-10-01T05:09:51.898Z,93.55
2022-10-01T05:10:51.895Z,93.55
2022-10-01T05:11:51.887Z,93.55
2022-10-01T05:12:51.883Z,93.65
2022-10-01T05:13:51.854Z,93.65
2022-10-01T05:14:51.857Z,93.65
2022-10-01T05:15:51.865Z,93.65
2022-10-01T05:16:51.830Z,93.65
2022-10-01T05:17:51.832Z,93.65
2022-10-01T05:18:51.806Z,93.55
2022-10-01T05:19:51.793Z,93.55
2022-10-01T05:20:51.796Z,93.55
2022-10-01T05:21:51.779Z,93.55
2022-10-01T05:22:51.782Z,93.55
2022-10-01T05:23:51.752Z,93.55
2022-10-01T05:24:51.743Z,93.55
2022-10-01T05:25:51.730Z,93.55
2022-10-01T05:26:51.730Z,93.55
2022-10-01T05:27:51.728Z,93.55
2022-10-01T05:28:51.708Z,93.44
2022-10-01T05:29:51.693Z,93.44
2022-10-01T05:30:51.675Z,93.44
2022-10-01T05:31:51.737Z,93.44
2022-10-01T05:32:51.672Z,93.44
2022-10-01T05:33:51.999Z,93.44
2022-10-01T05:34:53.767Z,93.35
2022-10-01T05:35:51.650Z,93.35
2022-10-01T05:36:51.904Z,93.35
2022-10-01T05:37:51.635Z,93.35
2022-10-01T05:38:51.718Z,93.40
2022-10-01T05:39:51.581Z,93.30
2022-10-01T05:40:51.580Z,93.30
2022-10-01T05:41:51.563Z,93.30
2022-10-01T05:42:51.562Z,93.30
2022-10-01T05:43:51.552Z,93.20
2022-10-01T05:44:51.536Z,93.10
2022-10-01T05:45:51.604Z,93.10
2022-10-01T05:46:51.513Z,93.10
2022-10-01T05:47:51.500Z,92.99
2022-10-01T05:48:51.515Z,92.99
2022-10-01T05:49:51.475Z,92.99
2022-10-01T05:50:51.473Z,92.89
2022-10-01T05:51:51.463Z,92.79
2022-10-01T05:52:51.451Z,92.79
2022-10-01T05:53:51.445Z,92.79
2022-10-01T05:54:51.437Z,92.64
2022-10-01T05:55:51.412Z,92.64
2022-10-01T05:56:51.410Z,92.64
2022-10-01T05:57:51.398Z,92.54
2022-10-01T05:58:51.387Z,92.54
2022-10-01T05:59:51.376Z,92.33
2022-10-01T06:00:51.370Z,92.33
2022-10-01T06:01:51.477Z,92.33
2022-10-01T06:02:51.469Z,92.33
2022-10-01T06:03:51.334Z,92.33
2022-10-01T06:04:51.313Z,92.33
2022-10-01T06:05:51.306Z,92.13
2022-10-01T06:06:51.293Z,92.13
2022-10-01T06:07:51.279Z,91.99
2022-10-01T06:08:51.286Z,91.99
2022-10-01T06:09:51.267Z,91.99
2022-10-01T06:10:51.268Z,91.88
2022-10-01T06:11:51.253Z,91.99
2022-10-01T06:12:51.231Z,91.88
2022-10-01T06:13:51.231Z,91.88
2022-10-01T06:14:51.211Z,91.78
2022-10-01T06:15:51.198Z,91.67
2022-10-01T06:16:51.238Z,91.67
2022-10-01T06:17:51.175Z,91.67
2022-10-01T06:18:51.600Z,91.67
2022-10-01T06:19:51.154Z,91.53
2022-10-01T06:20:51.163Z,91.42
2022-10-01T06:21:51.138Z,91.33
2022-10-01T06:22:51.116Z,91.22
2022-10-01T06:23:51.103Z,91.12
2022-10-01T06:24:53.739Z,91.12
2022-10-01T06:25:51.102Z,91.12
2022-10-01T06:26:51.080Z,91.12
2022-10-01T06:27:51.093Z,91.02
2022-10-01T06:28:51.078Z,91.02
2022-10-01T06:29:51.052Z,90.91
2022-10-01T06:30:51.038Z,90.91
2022-10-01T06:31:51.069Z,90.91
2022-10-01T06:32:51.021Z,90.87
2022-10-01T06:33:51.001Z,90.77
2022-10-01T06:34:51.000Z,90.67
2022-10-01T06:35:50.976Z,90.67
2022-10-01T06:36:50.977Z,90.67
2022-10-01T06:37:50.955Z,90.67
2022-10-01T06:38:50.939Z,90.67
2022-10-01T06:39:50.943Z,90.67
2022-10-01T06:40:50.924Z,90.56
2022-10-01T06:41:50.913Z,90.46
2022-10-01T06:42:54.792Z,90.56
2022-10-01T06:43:50.888Z,90.56
2022-10-01T06:44:50.890Z,90.56
2022-10-01T06:45:50.927Z,90.56
2022-10-01T06:46:50.863Z,90.46
2022-10-01T06:47:50.846Z,90.46
2022-10-01T06:48:50.834Z,90.46
2022-10-01T06:49:50.827Z,90.46
2022-10-01T06:50:50.817Z,90.52
2022-10-01T06:51:50.851Z,90.52
2022-10-01T06:52:50.796Z,90.52
2022-10-01T06:53:50.775Z,90.42
2022-10-01T06:54:50.799Z,90.32
2022-10-01T06:55:50.762Z,90.22
2022-10-01T06:56:50.751Z,90.32
2022-10-01T06:57:50.731Z,90.32
2022-10-01T06:58:50.724Z,90.32
2022-10-01T06:59:50.722Z,90.32
2022-10-01T07:00:50.824Z,90.22
2022-10-01T07:01:55.510Z,90.22
2022-10-01T07:02:50.773Z,90.22
2022-10-01T07:03:50.673Z,90.17
2022-10-01T07:04:50.660Z,90.17
2022-10-01T07:05:50.662Z,90.07
2022-10-01T07:06:50.646Z,89.97
2022-10-01T07:07:50.629Z,89.87
2022-10-01T07:08:50.633Z,89.97
2022-10-01T07:09:50.604Z,89.87
2022-10-01T07:10:50.617Z,89.87
2022-10-01T07:11:50.603Z,89.97
2022-10-01T07:12:50.572Z,89.97
2022-10-01T07:13:54.383Z,89.97
2022-10-01T07:14:50.558Z,89.87
2022-10-01T07:15:50.551Z,89.87
2022-10-01T07:16:50.594Z,89.87
2022-10-01T07:17:50.518Z,89.76
2022-10-01T07:18:50.509Z,89.76
2022-10-01T07:19:50.495Z,89.76
2022-10-01T07:20:50.527Z,89.72
2022-10-01T07:21:50.476Z,89.72
2022-10-01T07:22:50.473Z,89.72
2022-10-01T07:23:50.449Z,89.72
2022-10-01T07:24:50.448Z,89.72
2022-10-01T07:25:50.439Z,89.62
2022-10-01T07:26:50.434Z,89.51
2022-10-01T07:27:50.439Z,89.51
2022-10-01T07:28:50.395Z,89.51
2022-10-01T07:29:50.383Z,89.51
2022-10-01T07:30:50.389Z,89.62
2022-10-01T07:31:50.478Z,89.62
2022-10-01T07:32:50.358Z,89.51
2022-10-01T07:33:50.367Z,89.42
2022-10-01T07:34:50.334Z,89.37
2022-10-01T07:35:50.325Z,89.17
2022-10-01T07:36:50.331Z,89.27
2022-10-01T07:37:50.300Z,89.17
2022-10-01T07:38:50.303Z,89.17
2022-10-01T07:39:50.310Z,88.96
2022-10-01T07:40:50.273Z,88.96
2022-10-01T07:41:50.273Z,88.96
2022-10-01T07:42:50.251Z,88.82
2022-10-01T07:43:50.237Z,88.71
2022-10-01T07:44:50.228Z,88.62
2022-10-01T07:45:50.402Z,88.62
2022-10-01T07:46:50.223Z,88.62
2022-10-01T07:47:50.195Z,88.41
2022-10-01T07:48:50.189Z,88.41
2022-10-01T07:49:50.173Z,88.37
2022-10-01T07:50:50.156Z,87.96
2022-10-01T07:51:50.156Z,87.96
2022-10-01T07:52:50.146Z,87.85
2022-10-01T07:53:50.130Z,87.96
2022-10-01T07:54:50.116Z,87.85
2022-10-01T07:55:50.103Z,87.85
2022-10-01T07:56:50.109Z,87.65
2022-10-01T07:57:50.084Z,87.55
2022-10-01T07:58:50.072Z,87.45
2022-10-01T07:59:54.875Z,87.45
2022-10-01T08:00:50.094Z,87.41
2022-10-01T08:01:50.179Z,87.30
2022-10-01T08:02:50.039Z,87.41
2022-10-01T08:03:50.019Z,87.41
2022-10-01T08:04:50.021Z,87.20
2022-10-01T08:05:50.012Z,86.90
2022-10-01T08:06:50.030Z,86.90
2022-10-01T08:07:49.982Z,87.10
2022-10-01T08:08:49.965Z,87.00
2022-10-01T08:09:49.965Z,87.10
2022-10-01T08:10:49.941Z,86.96
2022-10-01T08:11:49.931Z,86.96
2022-10-01T08:12:49.932Z,87.06
2022-10-01T08:13:49.920Z,86.96
2022-10-01T08:14:49.897Z,86.65
2022-10-01T08:15:49.890Z,86.24
2022-10-01T08:16:49.979Z,86.35
2022-10-01T08:17:49.886Z,86.24
2022-10-01T08:18:49.857Z,86.14
2022-10-01T08:19:49.860Z,86.24
2022-10-01T08:20:49.832Z,86.10
2022-10-01T08:21:49.831Z,86.20
2022-10-01T08:22:49.833Z,86.20
2022-10-01T08:23:49.808Z,86.20
2022-10-01T08:24:49.790Z,86.20
2022-10-01T08:25:49.781Z,86.10
2022-10-01T08:26:49.778Z,86.00
2022-10-01T08:27:49.813Z,85.89
2022-10-01T08:28:49.752Z,85.89
2022-10-01T08:29:49.764Z,85.79
2022-10-01T08:30:49.730Z,85.89
2022-10-01T08:31:49.757Z,85.79
2022-10-01T08:32:49.725Z,85.79
2022-10-01T08:33:49.702Z,85.49
2022-10-01T08:34:53.263Z,85.59
2022-10-01T08:35:49.682Z,85.59
2022-10-01T08:36:49.659Z,85.69
2022-10-01T08:37:49.659Z,85.59
2022-10-01T08:38:49.649Z,85.69
2022-10-01T08:39:49.633Z,85.69
2022-10-01T08:40:49.620Z,85.86
2022-10-01T08:41:49.634Z,85.75
2022-10-01T08:42:49.606Z,85.75
2022-10-01T08:43:49.582Z,85.45
2022-10-01T08:44:49.572Z,85.14
2022-10-01T08:45:49.609Z,84.80
2022-10-01T08:46:49.549Z,84.80
2022-10-01T08:47:49.564Z,84.69
2022-10-01T08:48:53.502Z,84.28
2022-10-01T08:49:49.529Z,84.28
2022-10-01T08:50:49.502Z,84.18
2022-10-01T08:51:49.508Z,84.08
2022-10-01T08:52:49.478Z,83.78
2022-10-01T08:53:49.492Z,83.43
2022-10-01T08:54:49.467Z,83.33
2022-10-01T08:55:49.460Z,83.33
2022-10-01T08:56:49.495Z,82.82
2022-10-01T08:57:49.429Z,82.92
2022-10-01T08:58:49.444Z,82.82
2022-10-01T08:59:49.436Z,82.92
2022-10-01T09:00:49.437Z,82.61
2022-10-01T09:01:49.382Z,82.31
2022-10-01T09:02:49.380Z,82.27
2022-10-01T09:03:49.397Z,82.27
2022-10-01T09:04:49.450Z,82.17
2022-10-01T09:05:49.355Z,82.07
2022-10-01T09:06:49.360Z,82.17
2022-10-01T09:07:49.345Z,81.86
2022-10-01T09:08:49.306Z,81.66
2022-10-01T09:09:49.323Z,81.56
2022-10-01T09:10:49.294Z,81.31
2022-10-01T09:11:49.277Z,81.31
2022-10-01T09:12:49.261Z,81.31
2022-10-01T09:13:50.388Z,81.11
2022-10-01T09:14:49.281Z,80.91
2022-10-01T09:15:49.239Z,80.80
2022-10-01T09:16:49.279Z,80.66
2022-10-01T09:17:49.244Z,80.56
2022-10-01T09:18:49.209Z,80.16
2022-10-01T09:19:49.212Z,79.85
2022-10-01T09:20:49.197Z,79.64
2022-10-01T09:21:49.167Z,79.71
2022-10-01T09:22:49.180Z,79.20
2022-10-01T09:23:49.157Z,79.20
2022-10-01T09:24:49.178Z,78.80
2022-10-01T09:25:49.202Z,78.35
2022-10-01T09:26:49.129Z,78.15
2022-10-01T09:27:49.196Z,78.35
2022-10-01T09:28:49.105Z,78.45
2022-10-01T09:29:49.125Z,78.45
2022-10-01T09:30:49.075Z,78.66
2022-10-01T09:31:49.096Z,78.72
2022-10-01T09:32:49.047Z,78.82
2022-10-01T09:33:49.050Z,79.02
2022-10-01T09:34:49.035Z,78.52
2022-10-01T09:35:49.022Z,78.82
2022-10-01T09:36:49.042Z,78.82
2022-10-01T09:37:49.004Z,78.41
2022-10-01T09:38:49.001Z,78.62
2022-10-01T09:39:48.977Z,79.13
2022-10-01T09:40:49.002Z,79.33
2022-10-01T09:41:48.970Z,79.43
2022-10-01T09:42:48.940Z,78.11
2022-10-01T09:43:48.922Z,78.31
2022-10-01T09:44:48.917Z,78.55
2022-10-01T09:45:49.051Z,78.66
2022-10-01T09:46:48.903Z,78.96
2022-10-01T09:47:48.945Z,79.16
2022-10-01T09:48:48.875Z,79.57
2022-10-01T09:49:48.863Z,79.57
2022-10-01T09:50:48.852Z,79.47
2022-10-01T09:51:48.850Z,79.88
2022-10-01T09:52:48.900Z,79.68
2022-10-01T09:53:48.826Z,79.68
2022-10-01T09:54:48.846Z,80.22
2022-10-01T09:55:48.885Z,80.52
2022-10-01T09:56:48.835Z,80.93
2022-10-01T09:57:48.791Z,80.83
2022-10-01T09:58:48.760Z,81.34
2022-10-01T09:59:48.751Z,81.85
2022-10-01T10:00:48.761Z,82.29
2022-10-01T10:01:48.896Z,82.29
2022-10-01T10:02:49.727Z,83.11
2022-10-01T10:03:48.729Z,83.21
2022-10-01T10:04:48.699Z,83.42
2022-10-01T10:05:48.681Z,83.11
2022-10-01T10:06:48.724Z,83.72
2022-10-01T10:07:48.724Z,84.17
2022-10-01T10:08:48.648Z,84.17
2022-10-01T10:09:48.641Z,84.78
2022-10-01T10:10:48.629Z,85.28
2022-10-01T10:11:48.622Z,85.39
2022-10-01T10:12:48.607Z,85.80
2022-10-01T10:13:48.655Z,86.21
2022-10-01T10:14:48.586Z,86.51
2022-10-01T10:15:48.710Z,86.61
2022-10-01T10:16:48.565Z,87.12
2022-10-01T10:17:48.557Z,86.76
2022-10-01T10:18:48.577Z,87.37
2022-10-01T10:19:48.541Z,87.88
2022-10-01T10:20:48.546Z,87.98
2022-10-01T10:21:48.571Z,88.08
2022-10-01T10:22:48.499Z,87.88
2022-10-01T10:23:48.512Z,88.49
2022-10-01T10:24:48.482Z,89.25
2022-10-01T10:25:48.472Z,89.34
2022-10-01T10:26:48.489Z,89.96
2022-10-01T10:27:48.459Z,90.06
2022-10-01T10:28:48.537Z,90.47
2022-10-01T10:29:48.621Z,90.98
2022-10-01T10:30:48.456Z,90.77
2022-10-01T10:31:48.451Z,91.08
2022-10-01T10:32:48.438Z,91.69
2022-10-01T10:33:48.383Z,91.43
2022-10-01T10:34:48.402Z,91.83
2022-10-01T10:35:48.393Z,92.24
2022-10-01T10:36:48.370Z,92.76
2022-10-01T10:37:48.342Z,92.86
2022-10-01T10:38:48.341Z,93.16
2022-10-01T10:39:48.364Z,93.41
2022-10-01T10:40:48.574Z,93.62
2022-10-01T10:41:48.295Z,93.82
2022-10-01T10:42:48.278Z,94.02
2022-10-01T10:43:48.289Z,94.12
2022-10-01T10:44:48.259Z,94.64
2022-10-01T10:45:48.266Z,94.84
2022-10-01T10:46:48.343Z,95.04
2022-10-01T10:47:48.267Z,94.74
2022-10-01T10:48:48.220Z,94.94
2022-10-01T10:49:48.216Z,95.04
2022-10-01T10:50:48.219Z,95.45
2022-10-01T10:51:48.187Z,95.29
2022-10-01T10:52:48.171Z,95.50
2022-10-01T10:53:48.171Z,95.70
2022-10-01T10:54:48.150Z,95.90
2022-10-01T10:55:48.156Z,95.96
2022-10-01T10:56:48.141Z,96.31
2022-10-01T10:57:48.155Z,96.31
2022-10-01T10:58:48.105Z,96.51
2022-10-01T10:59:48.112Z,96.62
2022-10-01T11:00:48.095Z,96.72
2022-10-01T11:01:48.194Z,96.83
2022-10-01T11:02:48.127Z,96.83
2022-10-01T11:03:48.059Z,96.92
2022-10-01T11:04:48.044Z,97.24
2022-10-01T11:05:48.055Z,97.33
2022-10-01T11:06:48.031Z,97.44
2022-10-01T11:07:48.039Z,97.33
2022-10-01T11:08:48.016Z,97.24
2022-10-01T11:09:47.987Z,97.24
2022-10-01T11:10:47.973Z,97.33
2022-10-01T11:11:47.994Z,97.44
2022-10-01T11:12:47.957Z,97.64
2022-10-01T11:13:47.965Z,97.44
2022-10-01T11:14:47.977Z,97.24
2022-10-01T11:15:47.973Z,97.24
2022-10-01T11:16:47.944Z,97.33
2022-10-01T11:17:47.920Z,97.54
2022-10-01T11:18:47.885Z,97.44
2022-10-01T11:19:47.875Z,97.44
2022-10-01T11:20:47.860Z,97.44
2022-10-01T11:21:47.860Z,97.24
2022-10-01T11:22:47.854Z,97.03
2022-10-01T11:23:47.832Z,97.24
2022-10-01T11:24:47.819Z,97.33
2022-10-01T11:25:47.805Z,97.39
2022-10-01T11:26:50.612Z,97.19
2022-10-01T11:27:47.871Z,97.29
2022-10-01T11:28:47.792Z,97.39
2022-10-01T11:29:47.794Z,97.29
2022-10-01T11:30:47.758Z,97.29
2022-10-01T11:31:47.807Z,97.29
2022-10-01T11:32:47.735Z,97.29
2022-10-01T11:33:47.750Z,97.19
2022-10-01T11:34:47.732Z,96.88
2022-10-01T11:35:47.705Z,96.78
2022-10-01T11:36:50.009Z,96.47
2022-10-01T11:37:47.693Z,96.27
2022-10-01T11:38:47.674Z,96.58
2022-10-01T11:39:47.653Z,96.88
2022-10-01T11:40:47.643Z,96.88
2022-10-01T11:41:47.628Z,96.98
2022-10-01T11:42:47.631Z,96.98
2022-10-01T11:43:47.647Z,96.68
2022-10-01T11:44:47.608Z,96.58
2022-10-01T11:45:47.583Z,96.58
2022-10-01T11:46:47.664Z,96.27
2022-10-01T11:47:47.573Z,96.06
2022-10-01T11:48:47.559Z,96.17
2022-10-01T11:49:47.573Z,96.37
2022-10-01T11:50:47.535Z,96.58
2022-10-01T11:51:47.522Z,96.58
2022-10-01T11:52:47.528Z,96.58
2022-10-01T11:53:47.500Z,96.47
2022-10-01T11:54:47.489Z,96.37
2022-10-01T11:55:47.491Z,96.47
2022-10-01T11:56:47.469Z,96.58
2022-10-01T11:57:47.456Z,96.78
2022-10-01T11:58:47.467Z,96.78
2022-10-01T11:59:47.469Z,96.68
2022-10-01T12:00:47.436Z,96.58
2022-10-01T12:01:47.475Z,95.76
2022-10-01T12:02:47.399Z,95.65
2022-10-01T12:03:47.407Z,95.76
2022-10-01T12:04:47.389Z,95.76
2022-10-01T12:05:47.430Z,95.86
2022-10-01T12:06:47.362Z,95.65
2022-10-01T12:07:47.375Z,95.65
2022-10-01T12:08:47.331Z,95.86
2022-10-01T12:09:47.326Z,95.86
2022-10-01T12:10:47.326Z,96.06
2022-10-01T12:11:47.316Z,95.96
2022-10-01T12:12:47.285Z,95.96
2022-10-01T12:13:47.271Z,95.96
2022-10-01T12:14:47.291Z,95.96
2022-10-01T12:15:47.381Z,95.96
2022-10-01T12:16:47.256Z,95.96
2022-10-01T12:17:47.248Z,95.96
2022-10-01T12:18:47.222Z,95.96
2022-10-01T12:19:47.213Z,95.86
2022-10-01T12:20:47.197Z,95.86
2022-10-01T12:21:47.197Z,95.86
2022-10-01T12:22:47.212Z,95.86
2022-10-01T12:23:47.185Z,95.96
2022-10-01T12:24:47.154Z,96.06
2022-10-01T12:25:47.178Z,96.37
2022-10-01T12:26:47.144Z,96.27
2022-10-01T12:27:47.172Z,96.47
2022-10-01T12:28:52.044Z,96.68
2022-10-01T12:29:47.112Z,97.08
2022-10-01T12:30:47.092Z,97.29
2022-10-01T12:31:47.165Z,97.39
2022-10-01T12:32:47.067Z,97.60
2022-10-01T12:33:47.075Z,97.70
2022-10-01T12:34:51.736Z,98.11
2022-10-01T12:35:47.077Z,98.36
2022-10-01T12:36:47.025Z,98.46
2022-10-01T12:37:47.021Z,98.46
2022-10-01T12:38:47.035Z,98.77
2022-10-01T12:39:47.016Z,98.97
2022-10-01T12:40:46.997Z,99.07
2022-10-01T12:41:46.970Z,99.18
2022-10-01T12:42:46.965Z,99.27
2022-10-01T12:43:46.955Z,99.38
2022-10-01T12:44:46.942Z,99.38
2022-10-01T12:45:46.978Z,99.48
2022-10-01T12:46:47.010Z,99.48
2022-10-01T12:47:46.906Z,99.58
2022-10-01T12:48:46.902Z,99.58
2022-10-01T12:49:46.896Z,99.68
2022-10-01T12:50:46.888Z,99.68
2022-10-01T12:51:46.879Z,99.68
2022-10-01T12:52:46.854Z,99.79